createdAt,value
2018-03-30T00:01:45.101Z,1.9
2018-03-30T00:04:45.080Z,1.9
2018-03-30T00:07:45.066Z,1.9
2018-03-30T00:10:45.110Z,1.9
2018-03-30T00:13:45.053Z,1.9
2018-03-30T00:16:45.109Z,1.9
2018-03-30T00:19:45.043Z,1.9
2018-03-30T00:22:45.074Z,1.9
2018-03-30T00:25:45.125Z,1.9
2018-03-30T00:28:45.045Z,1.9
2018-03-30T00:31:45.129Z,1.9
2018-03-30T00:34:45.137Z,1.9
2018-03-30T00:37:45.041Z,1.9
2018-03-30T00:40:45.067Z,1.9
2018-03-30T00:43:45.062Z,1.9
2018-03-30T00:46:45.102Z,1.9
2018-03-30T00:49:45.058Z,1.9
2018-03-30T00:52:45.051Z,1.9
2018-03-30T00:55:45.310Z,1.9
2018-03-30T00:58:45.091Z,1.9
2018-03-30T01:01:45.059Z,1.9
2018-03-30T01:04:45.053Z,1.9
2018-03-30T01:07:45.114Z,1.9
2018-03-30T01:10:45.045Z,1.9
2018-03-30T01:13:45.049Z,1.9
2018-03-30T01:16:45.053Z,1.9
2018-03-30T01:19:45.040Z,1.9
2018-03-30T01:22:45.068Z,1.9
2018-03-30T01:25:45.031Z,1.9
2018-03-30T01:28:45.087Z,1.9
2018-03-30T01:31:45.043Z,1.9
2018-03-30T01:34:45.031Z,1.9
2018-03-30T01:37:45.037Z,1.9
2018-03-30T01:40:45.027Z,1.9
2018-03-30T01:43:45.073Z,1.9
2018-03-30T01:46:45.063Z,1.9
2018-03-30T01:49:45.034Z,1.9
2018-03-30T01:52:45.066Z,1.9
2018-03-30T01:55:45.060Z,1.9
2018-03-30T01:58:45.021Z,1.9
2018-03-30T02:01:45.068Z,2
2018-03-30T02:04:45.019Z,2
2018-03-30T02:07:45.085Z,2
2018-03-30T02:10:45.123Z,2
2018-03-30T02:13:45.014Z,2
2018-03-30T02:16:45.142Z,2
2018-03-30T02:19:45.286Z,2
2018-03-30T02:22:45.014Z,2
2018-03-30T02:25:44.998Z,2
2018-03-30T02:28:45.011Z,2
2018-03-30T02:31:45.041Z,2
2018-03-30T02:34:45.040Z,2
2018-03-30T02:37:45.043Z,2
2018-03-30T02:40:45.066Z,2
2018-03-30T02:43:45.023Z,2
2018-03-30T02:46:45.059Z,2
2018-03-30T02:49:45.096Z,2
2018-03-30T02:52:45.054Z,2
2018-03-30T02:55:45.053Z,2
2018-03-30T02:58:45.036Z,2
2018-03-30T03:01:45.019Z,2
2018-03-30T03:04:45.034Z,2
2018-03-30T03:07:45.103Z,2
2018-03-30T03:10:44.982Z,2
2018-03-30T03:13:44.996Z,2
2018-03-30T03:16:45.016Z,2
2018-03-30T03:19:45.006Z,2
2018-03-30T03:22:45.006Z,2
2018-03-30T03:25:44.999Z,2
2018-03-30T03:28:45.581Z,2
2018-03-30T03:31:45.068Z,2
2018-03-30T03:34:44.989Z,2
2018-03-30T03:37:45.015Z,2
2018-03-30T03:40:44.986Z,2
2018-03-30T03:43:44.974Z,2
2018-03-30T03:46:45.014Z,2
2018-03-30T03:49:44.986Z,2
2018-03-30T03:52:45.040Z,2
2018-03-30T03:55:44.985Z,2
2018-03-30T03:58:44.983Z,2
2018-03-30T04:01:45.058Z,2.1
2018-03-30T04:04:45.025Z,2.1
2018-03-30T04:07:45.036Z,2.1
2018-03-30T04:10:45.001Z,2.1
2018-03-30T04:13:44.984Z,2.1
2018-03-30T04:16:45.117Z,2.1
2018-03-30T04:19:44.979Z,2.1
2018-03-30T04:22:45.005Z,2.1
2018-03-30T04:25:45.001Z,2.1
2018-03-30T04:28:44.968Z,2.1
2018-03-30T04:31:45.143Z,2.1
2018-03-30T04:34:44.963Z,2.1
2018-03-30T04:37:45.053Z,2.1
2018-03-30T04:40:44.995Z,2.1
2018-03-30T04:43:44.964Z,2.1
2018-03-30T04:46:44.989Z,2.1
2018-03-30T04:49:44.959Z,2.1
2018-03-30T04:52:45.035Z,2.1
2018-03-30T04:55:44.983Z,2.1
2018-03-30T04:58:44.971Z,2.1
2018-03-30T05:01:44.998Z,2.1
2018-03-30T05:04:44.960Z,2.1
2018-03-30T05:07:44.979Z,2.1
2018-03-30T05:10:44.964Z,2.1
2018-03-30T05:13:44.962Z,2.1
2018-03-30T05:16:44.979Z,2.1
2018-03-30T05:19:44.952Z,2.1
2018-03-30T05:22:45.016Z,2.1
2018-03-30T05:25:44.947Z,2.1
2018-03-30T05:28:44.961Z,2.1
2018-03-30T05:31:45.011Z,2.1
2018-03-30T05:34:44.953Z,2.1
2018-03-30T05:37:44.945Z,2.1
2018-03-30T05:40:44.989Z,2.1
2018-03-30T05:43:44.962Z,2.1
2018-03-30T05:46:45.030Z,2.1
2018-03-30T05:49:44.961Z,2.1
2018-03-30T05:52:44.972Z,2.1
2018-03-30T05:55:45.231Z,2.1
2018-03-30T05:58:44.986Z,2.1
2018-03-30T06:01:44.973Z,2.2
2018-03-30T06:04:44.936Z,2.2
2018-03-30T06:07:44.946Z,2.2
2018-03-30T06:10:44.971Z,2.2
2018-03-30T06:13:44.963Z,2.2
2018-03-30T06:16:45.040Z,2.2
2018-03-30T06:19:44.935Z,2.2
2018-03-30T06:22:44.982Z,2.2
2018-03-30T06:25:44.934Z,2.2
2018-03-30T06:28:45.017Z,2.2
2018-03-30T06:31:44.942Z,2.2
2018-03-30T06:34:44.946Z,2.2
2018-03-30T06:37:44.955Z,2.2
2018-03-30T06:40:44.948Z,2.2
2018-03-30T06:43:44.932Z,2.2
2018-03-30T06:46:44.956Z,2.2
2018-03-30T06:49:44.916Z,2.2
2018-03-30T06:52:44.965Z,2.2
2018-03-30T06:55:44.965Z,2.2
2018-03-30T06:58:45.004Z,2.2
2018-03-30T07:01:44.915Z,2.2
2018-03-30T07:04:44.938Z,2.2
2018-03-30T07:07:44.935Z,2.2
2018-03-30T07:10:44.937Z,2.2
2018-03-30T07:13:44.908Z,2.2
2018-03-30T07:16:44.933Z,2.2
2018-03-30T07:19:44.913Z,2.2
2018-03-30T07:22:44.916Z,2.2
2018-03-30T07:25:45.085Z,2.2
2018-03-30T07:28:44.906Z,2.2
2018-03-30T07:31:44.911Z,2.2
2018-03-30T07:34:44.962Z,2.2
2018-03-30T07:37:44.920Z,2.2
2018-03-30T07:40:44.897Z,2.2
2018-03-30T07:43:45.131Z,2.2
2018-03-30T07:46:44.959Z,2.2
2018-03-30T07:49:44.938Z,2.2
2018-03-30T07:52:44.918Z,2.2
2018-03-30T07:55:44.910Z,2.2
2018-03-30T07:58:44.906Z,2.2
2018-03-30T08:01:44.889Z,2.3
2018-03-30T08:04:44.986Z,2.3
2018-03-30T08:07:44.924Z,2.3
2018-03-30T08:10:44.932Z,2.3
2018-03-30T08:13:44.928Z,2.3
2018-03-30T08:16:45.071Z,2.3
2018-03-30T08:19:45.744Z,2.3
2018-03-30T08:22:44.941Z,2.3
2018-03-30T08:25:44.917Z,2.3
2018-03-30T08:28:44.922Z,2.3
2018-03-30T08:31:44.904Z,2.3
2018-03-30T08:34:45.039Z,2.3
2018-03-30T08:37:44.905Z,2.3
2018-03-30T08:40:44.897Z,2.3
2018-03-30T08:43:44.890Z,2.3
2018-03-30T08:46:44.895Z,2.3
2018-03-30T08:49:45.058Z,2.3
2018-03-30T08:52:44.912Z,2.3
2018-03-30T08:55:44.900Z,2.3
2018-03-30T08:58:44.926Z,2.3
2018-03-30T09:01:44.886Z,2.3
2018-03-30T09:04:44.918Z,2.3
2018-03-30T09:07:45.100Z,2.3
2018-03-30T09:10:45.167Z,2.3
2018-03-30T09:13:44.936Z,2.3
2018-03-30T09:16:44.898Z,2.3
2018-03-30T09:19:44.915Z,2.3
2018-03-30T09:22:44.915Z,2.3
2018-03-30T09:25:45.073Z,2.3
2018-03-30T09:28:45.022Z,2.3
2018-03-30T09:31:45.272Z,2.3
2018-03-30T09:34:45.341Z,2.3
2018-03-30T09:37:45.401Z,2.3
2018-03-30T09:40:45.391Z,2.3
2018-03-30T09:43:45.326Z,2.3
2018-03-30T09:46:45.279Z,2.3
2018-03-30T09:49:46.070Z,2.3
2018-03-30T09:52:47.300Z,2.3
2018-03-30T09:55:45.123Z,2.3
2018-03-30T09:58:45.286Z,2.3
2018-03-30T10:01:44.890Z,2.5
2018-03-30T10:04:44.911Z,2.5
2018-03-30T10:07:44.982Z,2.5
2018-03-30T10:10:44.895Z,2.5
2018-03-30T10:13:44.881Z,2.5
2018-03-30T10:16:44.875Z,2.5
2018-03-30T10:19:44.994Z,2.5
2018-03-30T10:22:44.912Z,2.5
2018-03-30T10:25:44.941Z,2.5
2018-03-30T10:28:44.868Z,2.5
2018-03-30T10:31:44.859Z,2.5
2018-03-30T10:34:44.879Z,2.5
2018-03-30T10:37:44.991Z,2.5
2018-03-30T10:40:44.945Z,2.5
2018-03-30T10:43:44.884Z,2.5
2018-03-30T10:46:44.907Z,2.5
2018-03-30T10:49:44.901Z,2.5
2018-03-30T10:52:44.907Z,2.5
2018-03-30T10:55:44.913Z,2.5
2018-03-30T10:58:44.875Z,2.5
2018-03-30T11:01:44.840Z,2.7
2018-03-30T11:04:44.860Z,2.7
2018-03-30T11:07:44.865Z,2.7
2018-03-30T11:10:44.861Z,2.7
2018-03-30T11:13:44.857Z,2.7
2018-03-30T11:16:44.892Z,2.7
2018-03-30T11:19:44.850Z,2.7
2018-03-30T11:22:44.860Z,2.7
2018-03-30T11:25:44.859Z,2.7
2018-03-30T11:28:44.839Z,2.7
2018-03-30T11:31:44.874Z,2.7
2018-03-30T11:34:44.898Z,2.7
2018-03-30T11:37:44.954Z,2.7
2018-03-30T11:40:44.920Z,2.7
2018-03-30T11:43:44.844Z,2.7
2018-03-30T11:46:44.920Z,2.7
2018-03-30T11:49:44.847Z,2.7
2018-03-30T11:52:44.841Z,2.7
2018-03-30T11:55:44.901Z,2.7
2018-03-30T11:58:44.910Z,2.7
2018-03-30T12:01:44.855Z,2.9
2018-03-30T12:04:44.830Z,2.9
2018-03-30T12:07:44.837Z,2.9
2018-03-30T12:10:44.809Z,2.9
2018-03-30T12:13:44.814Z,2.9
2018-03-30T12:16:44.911Z,2.9
2018-03-30T12:19:44.854Z,2.9
2018-03-30T12:22:44.832Z,2.9
2018-03-30T12:25:44.825Z,2.9
2018-03-30T12:28:44.805Z,2.9
2018-03-30T12:31:44.852Z,2.9
2018-03-30T12:34:44.824Z,2.9
2018-03-30T12:37:44.855Z,2.9
2018-03-30T12:40:44.902Z,2.9
2018-03-30T12:43:44.852Z,2.9
2018-03-30T12:46:45.121Z,2.9
2018-03-30T12:49:44.828Z,2.9
2018-03-30T12:52:44.816Z,2.9
2018-03-30T12:55:44.827Z,2.9
2018-03-30T12:58:44.835Z,2.9
2018-03-30T13:01:44.863Z,2.9
2018-03-30T13:04:44.830Z,2.9
2018-03-30T13:07:44.836Z,2.9
2018-03-30T13:10:44.824Z,2.9
2018-03-30T13:13:44.864Z,2.9
2018-03-30T13:16:44.811Z,2.9
2018-03-30T13:19:44.831Z,2.9
2018-03-30T13:22:45.096Z,2.9
2018-03-30T13:25:44.786Z,2.9
2018-03-30T13:28:44.865Z,2.9
2018-03-30T13:31:44.806Z,2.9
2018-03-30T13:34:44.805Z,2.9
2018-03-30T13:37:44.817Z,2.9
2018-03-30T13:40:44.816Z,2.9
2018-03-30T13:43:44.818Z,2.9
2018-03-30T13:46:44.883Z,2.9
2018-03-30T13:49:44.881Z,2.9
2018-03-30T13:52:44.850Z,2.9
2018-03-30T13:55:44.795Z,2.9
2018-03-30T13:58:44.865Z,2.9
2018-03-30T14:01:44.807Z,2.9
2018-03-30T14:04:44.816Z,2.9
2018-03-30T14:07:44.790Z,2.9
2018-03-30T14:10:44.792Z,2.9
2018-03-30T14:13:45.129Z,2.9
2018-03-30T14:16:44.869Z,2.9
2018-03-30T14:19:44.931Z,2.9
2018-03-30T14:22:44.972Z,2.9
2018-03-30T14:25:44.797Z,2.9
2018-03-30T14:28:45.080Z,2.9
2018-03-30T14:31:44.817Z,2.9
2018-03-30T14:34:45.391Z,2.9
2018-03-30T14:37:44.968Z,2.9
2018-03-30T14:40:44.817Z,2.9
2018-03-30T14:43:44.827Z,2.9
2018-03-30T14:46:44.844Z,2.9
2018-03-30T14:49:44.824Z,2.9
2018-03-30T14:52:44.812Z,2.9
2018-03-30T14:55:44.787Z,2.9
2018-03-30T14:58:44.786Z,2.9
2018-03-30T15:01:44.778Z,2.9
2018-03-30T15:04:44.819Z,2.9
2018-03-30T15:07:44.786Z,2.9
2018-03-30T16:01:30.582Z,3.4
2018-03-30T16:04:30.548Z,3.4
2018-03-30T16:07:30.522Z,3.4
2018-03-30T16:10:30.540Z,3.4
2018-03-30T16:13:30.582Z,3.4
2018-03-30T16:16:30.595Z,3.4
2018-03-30T16:19:30.593Z,3.4
2018-03-30T16:22:30.527Z,3.4
2018-03-30T16:25:30.558Z,3.4
2018-03-30T16:28:30.544Z,3.4
2018-03-30T16:31:30.517Z,3.4
2018-03-30T16:34:30.537Z,3.4
2018-03-30T16:37:30.544Z,3.4
2018-03-30T16:40:30.524Z,3.4
2018-03-30T16:43:30.535Z,3.4
2018-03-30T16:46:30.527Z,3.4
2018-03-30T16:49:30.628Z,3.4
2018-03-30T16:52:30.554Z,3.4
2018-03-30T16:55:30.538Z,3.4
2018-03-30T16:58:30.539Z,3.4
2018-03-30T17:01:30.627Z,3.8
2018-03-30T17:04:30.499Z,3.8
2018-03-30T17:07:30.502Z,3.8
2018-03-30T17:10:30.565Z,3.8
2018-03-30T17:13:30.497Z,3.8
2018-03-30T17:16:30.494Z,3.8
2018-03-30T17:19:30.504Z,3.8
2018-03-30T17:22:30.565Z,3.8
2018-03-30T17:25:30.548Z,3.8
2018-03-30T17:28:30.776Z,3.8
2018-03-30T17:31:30.509Z,3.8
2018-03-30T17:34:30.509Z,3.8
2018-03-30T17:37:30.509Z,3.8
2018-03-30T17:40:30.520Z,3.8
2018-03-30T17:43:30.518Z,3.8
2018-03-30T17:46:30.493Z,3.8
2018-03-30T17:49:30.533Z,3.8
2018-03-30T17:52:30.755Z,3.8
2018-03-30T17:55:30.495Z,3.8
2018-03-30T17:58:31.329Z,3.8
2018-03-30T18:01:30.496Z,3.8
2018-03-30T18:04:32.431Z,3.8
2018-03-30T18:07:30.570Z,3.8
2018-03-30T18:10:30.485Z,3.8
2018-03-30T18:13:31.193Z,3.8
2018-03-30T18:16:30.773Z,3.8
2018-03-30T18:19:30.661Z,3.8
2018-03-30T18:22:30.558Z,3.8
2018-03-30T18:25:31.161Z,3.8
2018-03-30T18:28:30.542Z,3.8
2018-03-30T18:31:30.484Z,3.8
2018-03-30T18:34:30.500Z,3.8
2018-03-30T18:37:30.504Z,3.8
2018-03-30T18:40:30.498Z,3.8
2018-03-30T20:02:07.149Z,3
2018-03-30T20:05:06.744Z,3
2018-03-30T20:08:07.440Z,3
2018-03-30T20:11:07.109Z,3
2018-03-30T20:14:07.105Z,3
2018-03-30T20:17:07.104Z,3
2018-03-30T20:20:07.115Z,3
2018-03-30T20:23:07.294Z,3
2018-03-30T20:26:07.257Z,3
2018-03-30T20:29:07.060Z,3
2018-03-30T20:32:06.504Z,3
2018-03-30T20:35:06.505Z,3
2018-03-30T20:38:06.496Z,3
2018-03-30T20:41:06.497Z,3
2018-03-30T20:44:06.487Z,3
2018-03-30T20:47:06.518Z,3
2018-03-30T20:50:07.134Z,3
2018-03-30T20:53:06.599Z,3
2018-03-30T20:56:06.793Z,3
2018-03-30T20:59:06.575Z,3
2018-03-30T21:02:06.502Z,3.1
2018-03-30T21:05:06.494Z,3.1
2018-03-30T21:08:06.486Z,3.1
2018-03-30T21:11:06.481Z,3.1
2018-03-30T21:14:06.877Z,3.1
2018-03-30T21:17:06.478Z,3.1
2018-03-30T21:20:06.510Z,3.1
2018-03-30T21:23:06.475Z,3.1
2018-03-30T21:26:06.472Z,3.1
2018-03-30T21:29:06.860Z,3.1
2018-03-30T21:32:06.463Z,3.1
2018-03-30T21:35:06.601Z,3.1
2018-03-30T21:38:06.474Z,3.1
2018-03-30T21:41:06.479Z,3.1
2018-03-30T21:44:06.523Z,3.1
2018-03-30T21:47:06.783Z,3.1
2018-03-30T21:50:06.516Z,3.1
2018-03-30T21:53:06.470Z,3.1
2018-03-30T21:56:06.478Z,3.1
2018-03-30T21:59:06.466Z,3.1
2018-03-30T22:02:06.656Z,2.9
2018-03-30T22:05:06.515Z,2.9
2018-03-30T22:08:06.485Z,2.9
2018-03-30T22:11:06.454Z,2.9
2018-03-30T22:14:06.478Z,2.9
2018-03-30T22:17:06.493Z,2.9
2018-03-30T22:20:06.487Z,2.9
2018-03-30T22:23:06.471Z,2.9
2018-03-30T22:26:07.181Z,2.9
2018-03-30T22:29:06.517Z,2.9
2018-03-30T22:32:06.468Z,2.9
2018-03-30T22:35:06.467Z,2.9
2018-03-30T22:38:06.478Z,2.9
2018-03-30T22:41:06.441Z,2.9
2018-03-30T22:44:06.462Z,2.9
2018-03-30T22:47:06.434Z,2.9
2018-03-30T22:50:06.554Z,2.9
2018-03-30T22:53:06.487Z,2.9
2018-03-30T22:56:06.430Z,2.9
2018-03-30T22:59:06.471Z,2.9
2018-03-30T23:02:06.517Z,2.7
2018-03-30T23:05:07.162Z,2.7
2018-03-30T23:08:06.431Z,2.7
2018-03-30T23:11:06.440Z,2.7
2018-03-30T23:14:06.406Z,2.7
2018-03-30T23:17:06.444Z,2.7
2018-03-30T23:20:06.417Z,2.7
2018-03-30T23:23:06.474Z,2.7
2018-03-30T23:26:06.415Z,2.7
2018-03-30T23:29:06.480Z,2.7
2018-03-30T23:32:06.457Z,2.7
2018-03-30T23:35:06.434Z,2.7
2018-03-30T23:38:06.450Z,2.7
2018-03-30T23:41:06.406Z,2.7
2018-03-30T23:44:06.440Z,2.7
2018-03-30T23:47:06.420Z,2.7
2018-03-30T23:50:06.462Z,2.7
2018-03-30T23:53:06.477Z,2.7
2018-03-30T23:56:06.427Z,2.7
2018-03-30T23:59:06.499Z,2.7
